Time;durP1;ratioP1;P1;durP2;ratioP2;P2;SDS_P1;SDS_P2;PMS_P1;PMS_P2;Temp;Humidity;BMP_temperature;BMP_pressure;BME280_temperature;BME280_humidity;BME280_pressure;Samples;Min_cycle;Max_cycle;Signal;HPM_P1;HPM_P2
2024/01/27 00:00:14;;;;;;;15.20;9.90;;;;;;;5.71;68.31;99904.89;108048;1253;60013;-66
2024/01/27 00:02:41;;;;;;;14.50;9.40;;;;;;;5.63;68.45;99900.67;108168;1254;72969;-66
2024/01/27 00:05:09;;;;;;;11.30;7.70;;;;;;;5.67;68.41;99902.16;108150;1254;70126;-66
2024/01/27 00:07:37;;;;;;;13.10;9.50;;;;;;;5.56;68.65;99898.05;108071;1253;71449;-66
2024/01/27 00:10:05;;;;;;;13.90;9.00;;;;;;;5.61;68.55;99899.52;108036;1254;59954;-67
2024/01/27 00:12:32;;;;;;;15.70;9.20;;;;;;;5.63;68.44;99898.58;108171;1253;59211;-67
2024/01/27 00:15:00;;;;;;;15.90;10.30;;;;;;;5.70;68.16;99898.98;107966;1253;73037;-65
2024/01/27 00:17:28;;;;;;;13.00;9.30;;;;;;;5.73;67.96;99902.77;108055;1254;69879;-67
2024/01/27 00:19:55;;;;;;;15.70;10.30;;;;;;;5.74;67.95;99899.93;108002;1256;72723;-66
2024/01/27 00:22:23;;;;;;;14.40;9.40;;;;;;;5.71;67.84;99900.34;108199;1254;60070;-64
2024/01/27 00:24:50;;;;;;;17.10;11.70;;;;;;;5.67;68.05;99895.55;108129;1252;59477;-67
2024/01/27 00:27:17;;;;;;;16.10;10.40;;;;;;;5.71;67.95;99894.08;108079;1254;73021;-66
2024/01/27 00:29:45;;;;;;;20.90;11.10;;;;;;;5.62;68.33;99890.95;108141;1254;68846;-66
2024/01/27 00:32:13;;;;;;;18.10;11.40;;;;;;;5.66;68.06;99888.77;108132;1254;72404;-67
2024/01/27 00:34:40;;;;;;;18.60;11.20;;;;;;;6.02;66.99;99885.77;108132;1260;59540;-66
2024/01/27 00:37:08;;;;;;;20.70;12.10;;;;;;;6.04;66.78;99884.87;108152;1254;59466;-66
2024/01/27 00:39:35;;;;;;;20.70;12.20;;;;;;;6.05;66.63;99885.36;108158;1254;73381;-66
2024/01/27 00:42:03;;;;;;;20.20;12.50;;;;;;;6.01;66.71;99888.41;108186;1253;69198;-66
2024/01/27 00:44:31;;;;;;;21.70;12.50;;;;;;;5.83;67.25;99885.80;108138;1257;72700;-66
2024/01/27 00:46:58;;;;;;;22.80;13.00;;;;;;;5.89;67.08;99882.21;108110;1259;59668;-67
2024/01/27 00:49:25;;;;;;;19.60;12.90;;;;;;;5.94;67.03;99879.14;108124;1253;59397;-67
2024/01/27 00:51:53;;;;;;;20.40;12.50;;;;;;;6.01;66.75;99873.95;108092;1254;71035;-66
2024/01/27 00:54:21;;;;;;;21.00;11.90;;;;;;;6.05;66.59;99874.21;108126;1254;71730;-66
2024/01/27 00:56:48;;;;;;;23.00;14.00;;;;;;;6.04;66.70;99875.08;108089;1257;71421;-66
2024/01/27 00:59:16;;;;;;;23.70;14.80;;;;;;;5.96;66.90;99883.29;108126;1255;60805;-66
2024/01/27 01:01:44;;;;;;;22.50;13.80;;;;;;;5.91;67.12;99884.25;108089;1253;60395;-66
2024/01/27 01:04:11;;;;;;;19.30;12.50;;;;;;;5.99;66.93;99888.64;108108;1254;73828;-67
2024/01/27 01:06:40;;;;;;;20.00;13.30;;;;;;;5.97;66.72;99889.35;108051;1253;68769;-66
2024/01/27 01:09:08;;;;;;;18.20;11.80;;;;;;;5.87;66.96;99886.92;108161;1259;72586;-67
2024/01/27 01:11:36;;;;;;;20.20;12.50;;;;;;;5.75;67.34;99886.86;108037;1254;60424;-67
2024/01/27 01:14:06;;;;;;;22.50;11.90;;;;;;;5.76;67.40;99882.48;108048;1254;60332;-66
2024/01/27 01:16:34;;;;;;;20.90;13.10;;;;;;;5.88;67.05;99881.89;108153;1254;72548;-67
2024/01/27 01:19:01;;;;;;;20.10;12.60;;;;;;;5.88;67.11;99879.43;108058;1253;68052;-66
2024/01/27 01:21:29;;;;;;;19.00;11.80;;;;;;;5.87;67.14;99883.64;108094;1254;71345;-67
2024/01/27 01:23:57;;;;;;;17.60;11.00;;;;;;;5.96;66.69;99886.61;108085;1253;60787;-67
2024/01/27 01:26:25;;;;;;;20.30;12.40;;;;;;;5.91;66.83;99889.63;108035;1253;60029;-66
2024/01/27 01:28:52;;;;;;;17.90;12.60;;;;;;;5.90;66.98;99891.58;108048;1254;74038;-66
2024/01/27 01:31:20;;;;;;;16.10;10.70;;;;;;;5.81;67.20;99889.69;108058;1253;70151;-67
2024/01/27 01:33:47;;;;;;;16.70;9.80;;;;;;;5.79;67.35;99884.85;108234;1254;72660;-66
2024/01/27 01:36:15;;;;;;;18.00;10.70;;;;;;;5.82;67.27;99885.85;108130;1254;60904;-68
2024/01/27 01:38:42;;;;;;;16.40;10.90;;;;;;;5.87;67.01;99881.39;108152;1253;60203;-67
2024/01/27 01:41:10;;;;;;;16.60;10.20;;;;;;;5.94;66.94;99878.45;108339;1254;73812;-67
2024/01/27 01:43:37;;;;;;;18.30;10.60;;;;;;;5.98;66.71;99879.42;108086;1254;67758;-67
2024/01/27 01:46:05;;;;;;;14.10;9.20;;;;;;;6.02;66.64;99879.69;108073;1254;72687;-66
2024/01/27 01:48:32;;;;;;;16.60;10.90;;;;;;;6.07;66.54;99878.69;108082;1254;60366;-65
2024/01/27 01:51:00;;;;;;;18.20;11.00;;;;;;;6.03;66.61;99878.25;108179;1254;60402;-66
2024/01/27 01:53:27;;;;;;;16.90;10.70;;;;;;;6.07;66.48;99876.41;107990;1254;72603;-66
2024/01/27 01:55:55;;;;;;;20.60;11.30;;;;;;;6.03;66.50;99874.43;108106;1254;68663;-67
2024/01/27 01:58:22;;;;;;;17.60;10.00;;;;;;;5.82;67.07;99873.11;108080;1254;72798;-66
2024/01/27 02:00:50;;;;;;;15.50;10.90;;;;;;;5.97;66.69;99864.44;108106;1254;60408;-67
2024/01/27 02:03:17;;;;;;;15.80;9.90;;;;;;;6.01;66.33;99865.58;108081;1254;60030;-66
2024/01/27 02:05:45;;;;;;;17.10;10.90;;;;;;;5.94;66.28;99870.59;108099;1253;73779;-66
2024/01/27 02:08:12;;;;;;;17.10;10.50;;;;;;;5.89;66.48;99874.00;108071;1254;68808;-66
2024/01/27 02:10:40;;;;;;;15.20;10.20;;;;;;;5.86;66.51;99875.80;108141;1254;71442;-67
2024/01/27 02:13:20;;;;;;;17.50;10.80;;;;;;;5.99;66.21;99875.54;108150;1254;60146;-66
2024/01/27 02:15:49;;;;;;;17.60;10.20;;;;;;;6.01;66.04;99869.95;108164;1252;60643;-66
2024/01/27 02:18:16;;;;;;;14.60;9.40;;;;;;;5.97;66.09;99875.41;108149;1253;72993;-66
2024/01/27 02:20:44;;;;;;;14.80;9.70;;;;;;;6.03;66.03;99869.55;108202;1257;69210;-66
2024/01/27 02:23:12;;;;;;;16.80;10.90;;;;;;;5.98;66.12;99868.61;108126;1254;71847;-67
2024/01/27 02:25:39;;;;;;;17.00;10.30;;;;;;;5.90;66.30;99871.55;108178;1254;61405;-66
2024/01/27 02:28:07;;;;;;;14.00;9.60;;;;;;;5.84;66.46;99875.70;108108;1254;59118;-68
2024/01/27 02:30:35;;;;;;;18.70;11.60;;;;;;;5.77;66.75;99879.32;108175;1254;73808;-66
2024/01/27 02:33:03;;;;;;;16.60;10.70;;;;;;;5.71;66.83;99882.59;108162;1254;70688;-66
2024/01/27 02:35:31;;;;;;;16.30;10.70;;;;;;;5.72;66.80;99882.22;107963;1254;71112;-66
2024/01/27 02:37:58;;;;;;;14.70;9.40;;;;;;;5.79;66.82;99886.42;108100;1257;60955;-67
2024/01/27 02:40:26;;;;;;;15.20;9.30;;;;;;;5.86;66.56;99885.92;108128;1253;61079;-66
2024/01/27 02:42:54;;;;;;;18.80;11.30;;;;;;;5.85;66.59;99886.64;108149;1254;73849;-67
2024/01/27 02:45:21;;;;;;;18.70;10.80;;;;;;;5.85;66.62;99888.38;107982;1254;70468;-67
2024/01/27 02:47:49;;;;;;;16.50;11.30;;;;;;;5.80;66.77;99885.50;108079;1254;71426;-67
2024/01/27 02:50:17;;;;;;;16.80;10.50;;;;;;;5.80;66.59;99888.84;108246;1254;61092;-66
2024/01/27 02:52:45;;;;;;;16.30;9.80;;;;;;;5.78;66.76;99889.05;108060;1254;60108;-65
2024/01/27 02:55:12;;;;;;;16.60;11.00;;;;;;;5.78;66.53;99889.58;108137;1254;73334;-67
2024/01/27 02:57:43;;;;;;;17.40;11.50;;;;;;;5.78;66.63;99892.55;108112;1254;69041;-66
2024/01/27 03:00:11;;;;;;;17.80;11.40;;;;;;;5.79;66.52;99893.21;108201;1254;71076;-65
2024/01/27 03:02:38;;;;;;;15.50;10.60;;;;;;;5.80;66.43;99892.14;108071;1257;60312;-66
2024/01/27 03:05:07;;;;;;;17.00;10.40;;;;;;;5.77;66.52;99894.30;108228;1254;60271;-67
2024/01/27 03:07:35;;;;;;;18.30;11.00;;;;;;;5.75;66.61;99896.10;108177;1253;72539;-66
2024/01/27 03:10:03;;;;;;;17.40;10.90;;;;;;;5.73;66.55;99895.09;108071;1254;70190;-65
2024/01/27 03:12:30;;;;;;;14.60;9.70;;;;;;;5.71;66.51;99899.48;108153;1253;73119;-67
2024/01/27 03:14:58;;;;;;;13.60;9.60;;;;;;;5.68;66.70;99898.84;108076;1259;60590;-66
2024/01/27 03:17:26;;;;;;;16.00;9.50;;;;;;;5.62;66.83;99901.73;108094;1253;60297;-67
2024/01/27 03:19:53;;;;;;;16.80;10.30;;;;;;;5.58;66.92;99900.78;108092;1253;73822;-66
2024/01/27 03:22:21;;;;;;;15.70;10.50;;;;;;;5.58;67.08;99893.83;108074;1253;68886;-67
2024/01/27 03:24:48;;;;;;;15.00;9.90;;;;;;;5.57;67.11;99896.29;108165;1257;72503;-66
2024/01/27 03:27:15;;;;;;;14.30;9.00;;;;;;;5.57;67.05;99893.85;108077;1253;60870;-66
2024/01/27 03:29:43;;;;;;;13.70;9.60;;;;;;;5.58;66.99;99892.42;108296;1251;60541;-66
2024/01/27 03:32:10;;;;;;;15.10;10.20;;;;;;;5.57;67.16;99895.24;108252;1250;72879;-66
2024/01/27 03:34:46;;;;;;;18.50;10.90;;;;;;;5.61;66.97;99893.39;108305;1251;69463;-65
2024/01/27 03:37:14;;;;;;;20.10;11.70;;;;;;;5.64;66.89;99895.63;108331;1251;72825;-67
2024/01/27 03:39:42;;;;;;;15.90;10.20;;;;;;;5.75;66.41;99895.39;108370;1251;60408;-66
2024/01/27 03:42:10;;;;;;;13.40;8.50;;;;;;;5.79;66.23;99895.84;108387;1251;60426;-66
2024/01/27 03:44:37;;;;;;;13.20;8.90;;;;;;;5.78;66.51;99893.76;108377;1250;74181;-66
2024/01/27 03:47:05;;;;;;;18.20;11.10;;;;;;;5.83;66.24;99889.64;108433;1251;70189;-65
2024/01/27 03:49:32;;;;;;;15.60;10.00;;;;;;;5.87;66.19;99890.10;108358;1255;73387;-66
2024/01/27 03:52:00;;;;;;;15.50;10.10;;;;;;;5.89;65.93;99890.39;108322;1250;60864;-65
2024/01/27 03:54:27;;;;;;;16.40;10.60;;;;;;;5.91;65.79;99890.52;108324;1256;60288;-65
2024/01/27 03:56:54;;;;;;;14.40;8.90;;;;;;;5.93;65.70;99888.76;108294;1251;74119;-66
2024/01/27 03:59:22;;;;;;;14.80;9.40;;;;;;;5.81;66.11;99889.33;108357;1251;69282;-66
2024/01/27 04:01:49;;;;;;;12.10;7.90;;;;;;;5.77;66.23;99890.11;108421;1254;72695;-64
2024/01/27 04:04:17;;;;;;;15.10;9.30;;;;;;;5.77;66.22;99890.64;108398;1250;60789;-66
2024/01/27 04:06:45;;;;;;;14.70;9.10;;;;;;;5.84;65.94;99892.42;108429;1250;59178;-63
2024/01/27 04:09:13;;;;;;;13.10;8.40;;;;;;;5.86;65.92;99893.06;108365;1255;73861;-65
2024/01/27 04:11:41;;;;;;;16.70;9.80;;;;;;;5.87;65.90;99893.58;108410;1251;68674;-67
2024/01/27 04:14:08;;;;;;;14.60;9.40;;;;;;;5.85;66.12;99898.13;108313;1251;72213;-64
2024/01/27 04:16:36;;;;;;;11.70;8.40;;;;;;;5.81;66.22;99897.36;108294;1250;60790;-66
2024/01/27 04:19:03;;;;;;;14.40;9.40;;;;;;;5.79;66.20;99893.58;108355;1250;60315;-65
2024/01/27 04:21:31;;;;;;;17.70;9.90;;;;;;;5.74;66.29;99891.40;108424;1250;73395;-65
2024/01/27 04:23:59;;;;;;;15.00;10.00;;;;;;;5.75;66.14;99890.86;108389;1251;68707;-64
2024/01/27 04:26:27;;;;;;;14.90;9.50;;;;;;;5.69;66.32;99895.86;108366;1250;72480;-64
2024/01/27 04:28:54;;;;;;;14.60;10.00;;;;;;;5.84;65.84;99899.73;108274;1251;60909;-63
2024/01/27 04:31:21;;;;;;;15.20;9.90;;;;;;;5.88;65.74;99902.10;108391;1256;60424;-65
2024/01/27 04:33:49;;;;;;;11.70;8.30;;;;;;;5.81;65.78;99902.58;108372;1251;73853;-66
2024/01/27 04:36:29;;;;;;;13.40;8.50;;;;;;;5.84;65.92;99903.21;108222;1251;69384;-64
2024/01/27 04:38:56;;;;;;;12.90;7.80;;;;;;;5.89;65.76;99903.46;108276;1251;72773;-66
2024/01/27 04:41:24;;;;;;;12.20;7.70;;;;;;;5.93;65.70;99904.96;108325;1251;60421;-66
2024/01/27 04:43:52;;;;;;;12.80;8.50;;;;;;;6.01;65.61;99905.83;108227;1251;60411;-66
2024/01/27 04:46:20;;;;;;;13.80;8.40;;;;;;;6.03;65.44;99904.76;108215;1250;73879;-66
2024/01/27 04:48:48;;;;;;;9.80;6.80;;;;;;;6.00;65.57;99908.65;108302;1251;70273;-66
2024/01/27 04:51:16;;;;;;;11.90;7.80;;;;;;;5.93;65.69;99908.25;108325;1254;72471;-66
2024/01/27 04:53:43;;;;;;;11.30;7.10;;;;;;;5.93;65.69;99913.33;108336;1254;60420;-66
2024/01/27 04:56:12;;;;;;;12.90;8.80;;;;;;;6.00;65.69;99916.50;108317;1251;60430;-66
2024/01/27 04:58:40;;;;;;;12.10;8.40;;;;;;;5.97;65.61;99915.85;108347;1251;74024;-66
2024/01/27 05:01:08;;;;;;;13.50;8.10;;;;;;;6.05;65.25;99913.24;108293;1250;69190;-66
2024/01/27 05:03:36;;;;;;;12.40;8.10;;;;;;;6.04;65.10;99913.77;108336;1253;72081;-66
2024/01/27 05:06:07;;;;;;;14.20;7.80;;;;;;;6.02;65.18;99919.05;108274;1251;60810;-65
2024/01/27 05:08:35;;;;;;;12.20;7.70;;;;;;;5.97;65.32;99918.30;108316;1251;60319;-65
2024/01/27 05:11:02;;;;;;;13.50;9.40;;;;;;;5.83;65.48;99925.00;108361;1251;73805;-66
2024/01/27 05:13:30;;;;;;;12.40;8.00;;;;;;;5.77;65.85;99924.45;108284;1251;69458;-66
2024/01/27 05:15:57;;;;;;;14.50;9.70;;;;;;;5.70;66.12;99924.42;108280;1251;72706;-67
2024/01/27 05:18:25;;;;;;;12.40;8.10;;;;;;;5.68;66.18;99926.53;108304;1253;60866;-66
2024/01/27 05:20:52;;;;;;;11.60;7.50;;;;;;;5.66;66.40;99928.48;108270;1250;60264;-66
2024/01/27 05:23:20;;;;;;;12.00;7.50;;;;;;;5.82;65.87;99932.00;108196;1251;72889;-66
2024/01/27 05:25:47;;;;;;;12.80;7.70;;;;;;;5.91;65.73;99929.73;108337;1251;68696;-67
2024/01/27 05:28:14;;;;;;;13.90;8.70;;;;;;;5.93;65.63;99930.74;108272;1251;72660;-66
2024/01/27 05:30:42;;;;;;;12.10;8.40;;;;;;;5.85;65.69;99934.02;108269;1251;60834;-67
2024/01/27 05:33:10;;;;;;;12.50;8.20;;;;;;;5.76;65.93;99939.61;108301;1249;60445;-66
2024/01/27 05:35:38;;;;;;;13.10;8.70;;;;;;;5.83;65.92;99941.91;108398;1251;72515;-66
2024/01/27 05:38:05;;;;;;;15.20;9.20;;;;;;;5.85;65.78;99947.98;108468;1251;69885;-66
2024/01/27 05:40:32;;;;;;;12.40;7.60;;;;;;;5.87;65.68;99950.19;108328;1252;72647;-67
2024/01/27 05:43:00;;;;;;;13.50;7.60;;;;;;;5.87;65.58;99948.83;108275;1251;60260;-67
2024/01/27 05:45:28;;;;;;;9.70;6.80;;;;;;;5.83;65.89;99947.48;108309;1251;60184;-66
2024/01/27 05:47:56;;;;;;;10.80;7.10;;;;;;;5.90;65.83;99945.60;108369;1251;72535;-66
2024/01/27 05:50:24;;;;;;;14.00;8.20;;;;;;;5.92;65.77;99944.70;108350;1251;68853;-66
2024/01/27 05:52:52;;;;;;;9.70;7.10;;;;;;;5.92;65.80;99946.27;108335;1251;72366;-67
2024/01/27 05:55:20;;;;;;;12.00;7.60;;;;;;;5.90;65.83;99948.05;108398;1250;60430;-67
2024/01/27 05:57:47;;;;;;;8.90;5.80;;;;;;;5.91;65.76;99948.91;108408;1250;60411;-66
2024/01/27 06:00:15;;;;;;;10.30;6.80;;;;;;;5.97;65.69;99950.02;108293;1254;72881;-67
2024/01/27 06:02:42;;;;;;;9.80;6.80;;;;;;;5.98;65.58;99952.09;108402;1251;70224;-66
2024/01/27 06:05:10;;;;;;;10.40;7.00;;;;;;;6.01;65.50;99955.50;108331;1250;72649;-67
2024/01/27 06:07:39;;;;;;;12.10;7.30;;;;;;;6.01;65.59;99956.56;108382;1251;60880;-66
2024/01/27 06:10:08;;;;;;;10.80;7.20;;;;;;;5.89;66.03;99962.35;108199;1250;60431;-66
2024/01/27 06:12:37;;;;;;;10.00;7.10;;;;;;;5.91;66.05;99964.41;108341;1250;73832;-66
2024/01/27 06:15:06;;;;;;;12.40;7.40;;;;;;;5.86;66.16;99965.36;108348;1251;70282;-66
2024/01/27 06:17:33;;;;;;;9.10;6.30;;;;;;;5.94;66.01;99964.35;108328;1251;72442;-67
2024/01/27 06:20:01;;;;;;;11.60;7.30;;;;;;;6.02;65.98;99967.70;108350;1256;60287;-66
2024/01/27 06:22:28;;;;;;;11.30;7.20;;;;;;;6.01;66.02;99969.45;108288;1251;60285;-66
2024/01/27 06:24:56;;;;;;;10.30;6.80;;;;;;;6.07;65.78;99971.41;108339;1252;72587;-65
2024/01/27 06:27:23;;;;;;;12.60;7.70;;;;;;;6.06;65.89;99970.91;108378;1251;70356;-66
2024/01/27 06:29:51;;;;;;;10.40;7.50;;;;;;;6.17;65.55;99973.13;108411;1251;72668;-65
2024/01/27 06:32:18;;;;;;;11.30;7.40;;;;;;;6.21;65.49;99978.60;108281;1250;60436;-66
2024/01/27 06:34:46;;;;;;;8.80;6.60;;;;;;;6.13;65.73;99979.83;108319;1251;58991;-66
2024/01/27 06:37:13;;;;;;;9.90;6.30;;;;;;;6.13;65.82;99976.89;108368;1251;73763;-66
2024/01/27 06:39:40;;;;;;;11.10;7.20;;;;;;;6.11;65.71;99982.14;108336;1251;68431;-65
2024/01/27 06:42:08;;;;;;;9.50;6.20;;;;;;;6.16;65.18;99981.69;108337;1254;71812;-66
2024/01/27 06:44:36;;;;;;;9.00;6.40;;;;;;;6.26;65.27;99983.39;108404;1256;60980;-66
2024/01/27 06:47:03;;;;;;;11.00;7.70;;;;;;;6.32;65.16;99990.05;108281;1251;58347;-66
2024/01/27 06:49:31;;;;;;;12.10;8.00;;;;;;;6.32;65.09;99991.45;108302;1250;73804;-66
2024/01/27 06:52:00;;;;;;;13.10;7.60;;;;;;;6.23;65.23;99992.00;108395;1255;70263;-66
2024/01/27 06:54:27;;;;;;;11.10;7.60;;;;;;;6.23;64.95;99993.92;108373;1252;72689;-66
2024/01/27 06:56:55;;;;;;;9.90;6.40;;;;;;;6.23;65.06;99994.95;108328;1251;60404;-65
2024/01/27 06:59:22;;;;;;;10.60;7.40;;;;;;;6.27;64.95;99998.02;108342;1255;60397;-67
2024/01/27 07:01:50;;;;;;;12.70;8.00;;;;;;;6.26;64.80;99998.73;108327;1250;72882;-65
2024/01/27 07:04:17;;;;;;;11.90;7.80;;;;;;;6.22;64.92;100002.66;108327;1250;68707;-66
2024/01/27 07:06:45;;;;;;;10.60;7.20;;;;;;;6.15;65.07;100002.63;108258;1255;71426;-67
2024/01/27 07:09:12;;;;;;;9.70;6.40;;;;;;;6.17;65.19;100005.38;108356;1251;60252;-67
2024/01/27 07:11:40;;;;;;;11.00;7.70;;;;;;;6.22;65.09;100005.61;108407;1250;60329;-65
2024/01/27 07:14:08;;;;;;;12.60;8.40;;;;;;;6.23;65.16;100005.95;108360;1255;71873;-66
2024/01/27 07:16:35;;;;;;;12.20;7.80;;;;;;;6.21;65.31;100008.60;108489;1251;70576;-66
2024/01/27 07:19:03;;;;;;;12.90;8.50;;;;;;;6.27;65.03;100012.66;108349;1250;72676;-66
2024/01/27 07:21:31;;;;;;;12.00;7.70;;;;;;;6.30;64.89;100015.02;108415;1255;60952;-67
2024/01/27 07:23:59;;;;;;;11.20;7.20;;;;;;;6.23;65.31;100019.73;108336;1251;60099;-66
2024/01/27 07:26:26;;;;;;;10.80;7.50;;;;;;;6.30;65.19;100019.74;108298;1251;73832;-66
2024/01/27 07:28:54;;;;;;;12.80;8.50;;;;;;;6.38;65.05;100022.38;108375;1251;70464;-65
2024/01/27 07:31:22;;;;;;;13.30;9.30;;;;;;;6.41;64.83;100028.56;108328;1250;72407;-67
2024/01/27 07:33:50;;;;;;;11.90;7.80;;;;;;;6.43;64.81;100025.40;108235;1251;60554;-66
2024/01/27 07:36:18;;;;;;;13.20;8.70;;;;;;;6.37;64.88;100025.70;108262;1251;60498;-66
2024/01/27 07:38:45;;;;;;;12.10;8.40;;;;;;;6.40;64.80;100027.55;108286;1251;72597;-66
2024/01/27 07:41:13;;;;;;;11.30;8.00;;;;;;;6.36;64.97;100026.59;108267;1257;70289;-66
2024/01/27 07:43:40;;;;;;;12.80;8.70;;;;;;;6.31;65.18;100025.82;108168;1251;72419;-66
2024/01/27 07:46:08;;;;;;;13.40;8.60;;;;;;;6.26;64.99;100025.08;108262;1251;60816;-67
2024/01/27 07:48:35;;;;;;;11.10;7.70;;;;;;;6.30;64.90;100025.15;108299;1251;60565;-66
2024/01/27 07:51:04;;;;;;;13.80;8.00;;;;;;;6.37;64.74;100024.48;108283;1251;71898;-66
2024/01/27 07:53:31;;;;;;;10.80;7.40;;;;;;;6.35;64.65;100028.35;108350;1251;69161;-66
2024/01/27 07:55:59;;;;;;;13.50;9.10;;;;;;;6.32;64.73;100032.08;108320;1251;72895;-66
2024/01/27 07:58:26;;;;;;;11.00;7.80;;;;;;;6.30;64.72;100032.11;108197;1254;59634;-65
2024/01/27 08:00:54;;;;;;;11.50;7.50;;;;;;;6.29;64.80;100032.14;108207;1251;60300;-66
2024/01/27 08:03:22;;;;;;;11.60;7.50;;;;;;;6.32;64.56;100030.67;108316;1251;73778;-66
2024/01/27 08:05:49;;;;;;;10.30;7.30;;;;;;;6.31;64.53;100034.19;108221;1251;69154;-66
2024/01/27 08:08:17;;;;;;;9.40;7.00;;;;;;;6.29;64.87;100033.88;108245;1251;72840;-66
2024/01/27 08:10:45;;;;;;;13.50;8.20;;;;;;;6.25;64.73;100039.91;108215;1254;60385;-65
2024/01/27 08:13:12;;;;;;;11.60;7.60;;;;;;;6.26;64.75;100041.96;108185;1251;60351;-67
2024/01/27 08:15:40;;;;;;;11.30;7.60;;;;;;;6.26;64.70;100046.31;108171;1251;74909;-66
2024/01/27 08:18:07;;;;;;;11.20;7.50;;;;;;;6.29;64.67;100043.64;108172;1251;70113;-67
2024/01/27 08:20:35;;;;;;;10.30;7.30;;;;;;;6.32;64.59;100042.02;108155;1251;72705;-67
2024/01/27 08:23:03;;;;;;;11.40;7.70;;;;;;;6.32;64.77;100045.50;108214;1254;60889;-68
2024/01/27 08:25:33;;;;;;;;;;;;;;;6.36;64.83;100048.73;108206;1251;59955;-67
2024/01/27 08:28:01;;;;;;;11.90;8.30;;;;;;;6.36;65.00;100053.10;108122;1251;73732;-67
2024/01/27 08:30:28;;;;;;;10.20;6.70;;;;;;;6.40;64.89;100055.80;108193;1251;72590;-67
2024/01/27 09:07:43;;;;;;;8.50;5.90;;;;;;;4.42;71.47;100089.35;105032;1289;601433;-67
2024/01/27 09:10:13;;;;;;;7.50;5.40;;;;;;;5.00;69.46;100086.15;107353;1263;59839;-67
2024/01/27 09:12:42;;;;;;;9.00;6.10;;;;;;;5.18;68.90;100086.23;107381;1263;59121;-67
2024/01/27 09:15:10;;;;;;;9.10;6.50;;;;;;;5.31;68.64;100086.54;107307;1264;71953;-67
2024/01/27 09:17:38;;;;;;;9.60;6.70;;;;;;;5.43;68.58;100086.17;107355;1263;69957;-67
2024/01/27 09:20:06;;;;;;;11.90;8.20;;;;;;;5.48;68.56;100088.35;107343;1266;72735;-67
2024/01/27 09:22:33;;;;;;;8.90;6.70;;;;;;;5.47;68.49;100092.55;107387;1260;61552;-67
2024/01/27 09:25:01;;;;;;;7.40;5.60;;;;;;;5.53;68.42;100094.90;107500;1261;58968;-67
2024/01/27 09:27:28;;;;;;;8.60;6.70;;;;;;;5.58;68.24;100089.40;107498;1260;71013;-67
2024/01/27 09:29:56;;;;;;;9.10;5.50;;;;;;;5.60;68.11;100091.64;107502;1261;68786;-66
2024/01/27 09:32:23;;;;;;;9.10;6.40;;;;;;;5.56;68.55;100092.73;107406;1262;73330;-67
2024/01/27 09:34:53;;;;;;;10.10;6.50;;;;;;;5.60;68.43;100089.90;107439;1262;59454;-67
2024/01/27 09:37:21;;;;;;;7.90;5.80;;;;;;;5.63;68.43;100089.66;107473;1262;59625;-67
2024/01/27 09:39:55;;;;;;;9.20;6.40;;;;;;;5.61;68.84;100088.14;107509;1263;71744;-67
2024/01/27 09:42:22;;;;;;;10.80;6.70;;;;;;;5.59;68.72;100088.52;107460;1268;69021;-67
2024/01/27 09:44:50;;;;;;;9.60;6.50;;;;;;;5.66;68.58;100090.13;107423;1263;72676;-67
2024/01/27 09:47:19;;;;;;;10.50;7.60;;;;;;;5.74;68.27;100088.77;107408;1263;59968;-67
2024/01/27 09:49:47;;;;;;;9.80;6.00;;;;;;;5.77;68.25;100090.30;107440;1263;60071;-67
2024/01/27 09:52:15;;;;;;;9.80;7.30;;;;;;;5.79;68.42;100091.48;107591;1260;72069;-66
2024/01/27 09:54:42;;;;;;;10.20;7.30;;;;;;;5.87;68.23;100089.59;107623;1260;70156;-66
2024/01/27 09:57:11;;;;;;;9.40;7.20;;;;;;;5.90;68.09;100091.44;107616;1261;71450;-67
2024/01/27 09:59:43;;;;;;;12.00;8.20;;;;;;;5.98;67.88;100089.40;107559;1260;60830;-66
2024/01/27 10:02:11;;;;;;;10.30;6.00;;;;;;;5.98;67.66;100089.59;107560;1259;59462;-66
2024/01/27 10:04:40;;;;;;;9.30;6.30;;;;;;;5.95;68.03;100090.51;107584;1259;71857;-66
2024/01/27 10:07:08;;;;;;;12.20;8.00;;;;;;;5.92;68.22;100090.20;107509;1260;70611;-67
2024/01/27 10:09:36;;;;;;;12.80;8.00;;;;;;;6.00;67.86;100093.20;107570;1264;72520;-67
2024/01/27 10:12:05;;;;;;;20.00;9.60;;;;;;;6.01;67.49;100097.02;107632;1260;61904;-67
2024/01/27 10:14:44;;;;;;;12.90;8.40;;;;;;;6.08;67.31;100096.89;107575;1261;59394;-66
2024/01/27 10:17:12;;;;;;;9.80;6.90;;;;;;;6.14;67.40;100101.66;107544;1259;71682;-66
2024/01/27 10:19:39;;;;;;;13.60;8.00;;;;;;;6.18;67.57;100104.54;107556;1260;68815;-66
2024/01/27 10:22:12;;;;;;;12.70;7.60;;;;;;;6.21;67.34;100105.70;107526;1261;72803;-66
2024/01/27 10:24:39;;;;;;;13.20;8.60;;;;;;;6.37;66.99;100105.91;107492;1261;60886;-66
2024/01/27 10:27:07;;;;;;;15.30;9.80;;;;;;;6.51;66.23;100108.58;107635;1260;60115;-66
2024/01/27 10:29:34;;;;;;;12.90;8.40;;;;;;;6.56;65.67;100108.15;107649;1261;70907;-66
2024/01/27 10:32:10;;;;;;;16.20;9.80;;;;;;;6.49;65.79;100110.38;107635;1260;70288;-67
2024/01/27 10:34:37;;;;;;;12.50;8.50;;;;;;;6.37;65.81;100111.49;107582;1260;71483;-67
2024/01/27 10:37:06;;;;;;;16.40;8.90;;;;;;;6.17;66.23;100118.15;107912;1257;59708;-68
2024/01/27 10:39:33;;;;;;;15.80;9.80;;;;;;;6.18;66.24;100119.37;107836;1260;59432;-68
2024/01/27 10:42:02;;;;;;;12.00;7.70;;;;;;;6.16;66.35;100123.75;107857;1257;73206;-68
2024/01/27 10:44:30;;;;;;;14.50;9.10;;;;;;;6.12;66.46;100127.50;107932;1257;68997;-66
2024/01/27 10:46:58;;;;;;;15.90;9.90;;;;;;;6.15;66.25;100126.91;107853;1256;72838;-66
2024/01/27 10:49:25;;;;;;;11.40;7.70;;;;;;;6.22;65.92;100132.19;107658;1257;60229;-66
2024/01/27 10:51:58;;;;;;;13.00;8.40;;;;;;;6.32;65.92;100130.26;107827;1257;59595;-66
2024/01/27 10:54:26;;;;;;;14.60;8.80;;;;;;;6.29;65.84;100133.45;107929;1256;71866;-66
2024/01/27 10:56:58;;;;;;;13.40;8.70;;;;;;;6.15;66.16;100139.30;107943;1255;69223;-66
2024/01/27 10:59:27;;;;;;;12.40;8.40;;;;;;;6.01;66.46;100142.52;107898;1256;73148;-66
2024/01/27 11:01:55;;;;;;;13.60;8.90;;;;;;;6.04;66.12;100144.73;107940;1260;59841;-66
2024/01/27 11:04:22;;;;;;;14.20;8.70;;;;;;;5.99;66.29;100147.77;107872;1256;62093;-66
2024/01/27 11:06:51;;;;;;;15.10;8.70;;;;;;;5.93;66.58;100148.04;107791;1256;73173;-66
2024/01/27 11:09:18;;;;;;;14.60;8.00;;;;;;;5.93;66.71;100154.83;107797;1256;70258;-66
2024/01/27 11:11:46;;;;;;;16.90;10.00;;;;;;;5.87;67.00;100152.84;107805;1257;71831;-66
2024/01/27 11:14:14;;;;;;;14.80;9.30;;;;;;;5.88;66.75;100156.13;107814;1257;59766;-69
2024/01/27 11:16:47;;;;;;;14.80;9.40;;;;;;;5.95;66.59;100156.38;107903;1256;60898;-66
2024/01/27 11:19:17;;;;;;;15.90;9.30;;;;;;;5.97;66.45;100159.83;107933;1256;73312;-66
2024/01/27 11:21:44;;;;;;;14.30;8.60;;;;;;;5.91;66.56;100159.39;107946;1256;69927;-66
2024/01/27 11:24:16;;;;;;;16.40;9.50;;;;;;;5.87;66.87;100162.59;107748;1257;71388;-66
2024/01/27 11:26:44;;;;;;;14.50;9.70;;;;;;;5.84;66.62;100162.64;107855;1257;59698;-66
2024/01/27 11:29:21;;;;;;;16.70;9.40;;;;;;;5.84;66.72;100163.34;107867;1256;59694;-66
2024/01/27 11:31:49;;;;;;;15.00;9.20;;;;;;;5.98;66.43;100163.48;107888;1254;73151;-66
2024/01/27 11:34:18;;;;;;;14.00;8.70;;;;;;;5.95;66.31;100164.56;107935;1254;68486;-66
2024/01/27 11:36:46;;;;;;;14.30;8.10;;;;;;;5.97;66.55;100166.11;107883;1254;73050;-66
2024/01/27 11:39:43;;;;;;;13.90;8.90;;;;;;;5.95;66.79;100168.92;107865;1257;59710;-66
2024/01/27 11:42:13;;;;;;;14.50;8.90;;;;;;;6.01;66.65;100170.91;107761;1254;59551;-67
2024/01/27 11:44:41;;;;;;;11.50;7.80;;;;;;;6.02;66.65;100174.55;107868;1254;71668;-67
2024/01/27 11:47:16;;;;;;;15.30;9.30;;;;;;;6.03;66.49;100172.81;107867;1254;70809;-66
2024/01/27 11:49:52;;;;;;;13.50;9.20;;;;;;;5.95;66.63;100176.95;108082;1254;72642;-64
2024/01/27 11:52:20;;;;;;;16.80;10.20;;;;;;;6.03;66.66;100178.90;107898;1255;59588;-66
2024/01/27 11:55:18;;;;;;;17.40;10.70;;;;;;;6.07;66.52;100184.75;107861;1254;59221;-67
2024/01/27 11:57:46;;;;;;;18.40;9.90;;;;;;;6.14;66.26;100189.02;107976;1259;73246;-67
2024/01/27 12:00:14;;;;;;;16.80;10.30;;;;;;;6.13;66.38;100191.45;107878;1254;69067;-67